createdAt,value
2023-07-04T00:04:35.315Z,85.99148
2023-07-04T00:09:47.557Z,87.19973
2023-07-04T00:14:59.832Z,87.64021
2023-07-04T00:20:14.300Z,87.11658
2023-07-04T00:25:27.258Z,88.24413
2023-07-04T00:30:39.444Z,88.19233
2023-07-04T00:35:51.753Z,88.65611
2023-07-04T00:41:06.556Z,88.28268
2023-07-04T00:46:18.678Z,89.09503
2023-07-04T00:51:30.801Z,89.15047
2023-07-04T00:56:42.849Z,89.45766
2023-07-04T01:01:55.016Z,89.62032
2023-07-04T01:07:07.804Z,90.15199
2023-07-04T01:12:20.035Z,90.409
2023-07-04T01:17:32.336Z,90.45399
2023-07-04T01:22:44.660Z,89.83041
2023-07-04T01:27:56.933Z,89.78224
2023-07-04T01:33:09.232Z,89.90353
2023-07-04T01:38:21.346Z,89.52409
2023-07-04T01:43:34.545Z,89.03342
2023-07-04T01:48:48.489Z,88.51503
2023-07-04T19:56:26.617Z,50.42327
2023-07-04T20:01:39.330Z,54.34795
2023-07-04T20:06:51.995Z,56.15083
2023-07-04T20:17:21.911Z,56.19853
2023-07-04T20:22:34.119Z,57.84285
2023-07-04T20:27:46.338Z,57.25134
2023-07-04T20:32:58.626Z,58.09856
2023-07-04T20:38:11.431Z,58.93936
2023-07-04T20:43:23.535Z,58.72288
2023-07-04T20:48:35.557Z,59.89376
2023-07-04T20:53:47.578Z,60.35028
2023-07-04T20:58:59.678Z,61.56813
2023-07-04T21:04:11.825Z,60.86779
2023-07-04T21:09:24.934Z,60.94284
2023-07-04T21:14:37.628Z,60.29751
2023-07-04T21:19:49.771Z,63.84996
2023-07-04T21:25:02.011Z,63.22632
2023-07-04T21:30:14.267Z,63.55516
2023-07-04T21:35:26.564Z,65.58095
2023-07-04T21:40:38.971Z,65.99854
2023-07-04T21:45:51.501Z,63.62658
2023-07-04T21:51:03.779Z,63.80766
2023-07-04T21:56:16.692Z,63.85261
2023-07-04T22:01:29.003Z,63.87748
2023-07-04T22:06:41.325Z,66.33611
2023-07-04T22:11:54.448Z,65.09128
2023-07-04T22:17:08.349Z,66.48621
2023-07-04T22:22:21.887Z,66.39342
2023-07-04T22:27:33.995Z,66.74754
2023-07-04T22:32:46.263Z,68.124
2023-07-04T22:37:58.533Z,69.38602
2023-07-04T22:48:28.526Z,69.08116
2023-07-04T22:53:40.848Z,66.25262
2023-07-04T22:58:53.610Z,70.44153
2023-07-04T23:04:05.848Z,71.77585
2023-07-04T23:09:18.100Z,68.68028
2023-07-04T23:14:31.841Z,75.58084
2023-07-04T23:19:44.057Z,75.27001
2023-07-04T23:24:56.218Z,73.42126
2023-07-04T23:30:08.438Z,79.838
2023-07-04T23:35:21.632Z,75.62776
2023-07-04T23:45:51.736Z,80.04762
2023-07-04T23:51:05.009Z,78.24028
2023-07-04T23:56:26.454Z,77.29668
